Time,TemperatureF,DewpointF,PressureIn,WindDirection,WindDirectionDegrees,WindSpeedMPH,WindSpeedGustMPH,Humidity,HourlyPrecipIn,Conditions,Clouds,dailyrainin,SoftwareType,DateUTC
2013-08-03 00:00:00,70.0,52.0,29.41,ESE,115,0.0,0.0,54,0.00,,,-99.99,wx200d/1.3,2013-08-03 04:00:00,
2013-08-03 00:05:00,69.8,52.0,29.41,ESE,110,0.0,0.0,54,0.00,,,-99.99,wx200d/1.3,2013-08-03 04:05:00,
2013-08-03 00:10:00,69.8,52.0,29.41,ESE,113,0.0,0.0,54,0.00,,,-99.99,wx200d/1.3,2013-08-03 04:10:00,
2013-08-03 00:15:00,69.8,52.0,29.41,ESE,106,0.0,0.0,53,0.00,,,-99.99,wx200d/1.3,2013-08-03 04:15:00,
2013-08-03 00:20:00,70.0,50.0,29.41,ESE,114,0.0,0.0,51,0.00,,,-99.99,wx200d/1.3,2013-08-03 04:20:00,
2013-08-03 00:25:00,69.8,50.0,29.41,ESE,114,0.0,0.0,51,0.00,,,-99.99,wx200d/1.3,2013-08-03 04:25:00,
2013-08-03 00:30:00,69.8,50.0,29.41,ESE,114,0.0,0.0,51,0.00,,,-99.99,wx200d/1.3,2013-08-03 04:30:00,
2013-08-03 00:36:00,69.8,52.0,29.41,ESE,114,0.0,0.0,52,0.00,,,-99.99,wx200d/1.3,2013-08-03 04:36:00,
2013-08-03 00:41:00,69.8,50.0,29.41,ESE,114,0.0,0.0,51,0.00,,,-99.99,wx200d/1.3,2013-08-03 04:41:00,
2013-08-03 00:46:00,69.8,50.0,29.41,SE,125,0.0,0.0,51,0.00,,,-99.99,wx200d/1.3,2013-08-03 04:46:00,
2013-08-03 00:51:00,69.8,52.0,29.41,ESE,108,0.0,0.0,52,0.00,,,-99.99,wx200d/1.3,2013-08-03 04:51:00,
2013-08-03 00:56:00,70.0,52.0,29.38,ESE,108,0.0,0.0,52,0.00,,,-99.99,wx200d/1.3,2013-08-03 04:56:00,
2013-08-03 01:01:00,70.0,52.0,29.38,ESE,108,0.0,0.0,52,0.00,,,-99.99,wx200d/1.3,2013-08-03 05:01:00,
2013-08-03 01:06:00,70.2,52.0,29.38,ESE,108,0.0,0.0,53,0.00,,,-99.99,wx200d/1.3,2013-08-03 05:06:00,
2013-08-03 01:11:00,70.2,52.0,29.38,NNE,32,0.0,0.0,52,0.00,,,-99.99,wx200d/1.3,2013-08-03 05:11:00,
2013-08-03 01:16:00,70.0,52.0,29.38,NNE,32,0.0,0.0,53,0.00,,,-99.99,wx200d/1.3,2013-08-03 05:16:00,
2013-08-03 01:21:00,69.8,52.0,29.38,NNE,31,0.0,0.0,53,0.00,,,-99.99,wx200d/1.3,2013-08-03 05:21:00,
2013-08-03 01:27:00,69.8,52.0,29.38,NNE,32,0.0,0.0,53,0.00,,,-99.99,wx200d/1.3,2013-08-03 05:27:00,
2013-08-03 01:32:00,69.8,52.0,29.38,NNE,31,0.0,0.0,54,0.00,,,-99.99,wx200d/1.3,2013-08-03 05:32:00,
2013-08-03 01:37:00,70.0,54.0,29.38,NNE,31,0.0,0.0,55,0.00,,,-99.99,wx200d/1.3,2013-08-03 05:37:00,
2013-08-03 01:42:00,70.0,54.0,29.38,NNE,32,0.0,0.0,56,0.00,,,-99.99,wx200d/1.3,2013-08-03 05:42:00,
2013-08-03 01:47:00,70.0,54.0,29.38,NNE,32,0.0,0.0,56,0.00,,,-99.99,wx200d/1.3,2013-08-03 05:47:00,
2013-08-03 01:52:00,70.0,54.0,29.38,NNE,31,0.0,0.0,56,0.00,,,-99.99,wx200d/1.3,2013-08-03 05:52:00,
2013-08-03 01:57:00,70.2,54.0,29.38,NNE,32,0.0,0.0,56,0.00,,,-99.99,wx200d/1.3,2013-08-03 05:57:00,
2013-08-03 02:02:00,69.8,54.0,29.38,NE,34,0.0,0.0,56,0.00,,,-99.99,wx200d/1.3,2013-08-03 06:02:00,
2013-08-03 02:07:00,69.6,54.0,29.38,NE,34,0.0,0.0,56,0.00,,,-99.99,wx200d/1.3,2013-08-03 06:07:00,
2013-08-03 02:12:00,69.6,54.0,29.38,NE,34,0.0,0.0,57,0.00,,,-99.99,wx200d/1.3,2013-08-03 06:12:00,
2013-08-03 02:17:00,69.8,54.0,29.38,NE,34,0.0,0.0,57,0.00,,,-99.99,wx200d/1.3,2013-08-03 06:17:00,
2013-08-03 02:22:00,70.0,54.0,29.38,NE,34,0.0,0.0,57,0.00,,,-99.99,wx200d/1.3,2013-08-03 06:22:00,
2013-08-03 02:28:00,70.0,54.0,29.38,NE,34,0.0,0.0,58,0.00,,,-99.99,wx200d/1.3,2013-08-03 06:28:00,
2013-08-03 02:33:00,70.0,54.0,29.38,NE,34,0.0,0.0,58,0.00,,,-99.99,wx200d/1.3,2013-08-03 06:33:00,
2013-08-03 02:38:00,70.0,55.0,29.38,NE,34,0.0,0.0,59,0.00,,,-99.99,wx200d/1.3,2013-08-03 06:38:00,
2013-08-03 02:43:00,70.0,55.0,29.38,NE,34,0.0,0.0,60,0.00,,,-99.99,wx200d/1.3,2013-08-03 06:43:00,
2013-08-03 02:48:00,70.0,55.0,29.38,NE,51,0.0,0.0,62,0.00,,,-99.99,wx200d/1.3,2013-08-03 06:48:00,
2013-08-03 02:53:00,70.3,57.0,29.38,NE,51,0.0,0.0,63,0.00,,,-99.99,wx200d/1.3,2013-08-03 06:53:00,
2013-08-03 02:58:00,71.6,59.0,29.38,SSW,196,0.0,0.0,63,0.00,,,-99.99,wx200d/1.3,2013-08-03 06:58:00,
2013-08-03 03:03:00,72.1,55.0,29.38,SW,222,0.0,0.0,54,0.00,,,-99.99,wx200d/1.3,2013-08-03 07:03:00,
2013-08-03 03:08:00,72.3,54.0,29.38,SW,214,0.0,0.0,52,0.00,,,-99.99,wx200d/1.3,2013-08-03 07:08:00,
2013-08-03 03:13:00,72.9,52.0,29.38,South,181,0.0,0.0,47,0.00,,,-99.99,wx200d/1.3,2013-08-03 07:13:00,
2013-08-03 03:18:00,73.4,50.0,29.38,SW,215,0.0,0.0,43,0.00,,,-99.99,wx200d/1.3,2013-08-03 07:18:00,
2013-08-03 03:23:00,73.8,48.0,29.38,SW,229,0.0,0.0,41,0.00,,,-99.99,wx200d/1.3,2013-08-03 07:23:00,
2013-08-03 03:28:00,73.8,48.0,29.38,SW,229,0.0,0.0,41,0.00,,,-99.99,wx200d/1.3,2013-08-03 07:28:00,
2013-08-03 03:33:00,73.8,48.0,29.38,SW,224,0.0,0.0,41,0.00,,,-99.99,wx200d/1.3,2013-08-03 07:33:00,
2013-08-03 03:38:00,73.9,48.0,29.38,SW,214,0.0,0.0,41,0.00,,,-99.99,wx200d/1.3,2013-08-03 07:38:00,
2013-08-03 03:43:00,73.9,48.0,29.38,SSW,193,0.0,0.0,40,0.00,,,-99.99,wx200d/1.3,2013-08-03 07:43:00,
2013-08-03 03:49:00,74.3,48.0,29.38,SW,222,0.0,0.0,39,0.00,,,-99.99,wx200d/1.3,2013-08-03 07:49:00,
2013-08-03 03:54:00,74.5,46.0,29.38,SW,222,0.0,0.0,37,0.00,,,-99.99,wx200d/1.3,2013-08-03 07:54:00,
2013-08-03 03:59:00,74.5,46.0,29.38,SW,233,0.0,0.0,36,0.00,,,-99.99,wx200d/1.3,2013-08-03 07:59:00,
2013-08-03 04:04:00,74.7,46.0,29.38,SW,233,0.0,0.0,36,0.00,,,-99.99,wx200d/1.3,2013-08-03 08:04:00,
2013-08-03 04:09:00,74.7,46.0,29.38,SW,233,0.0,0.0,37,0.00,,,-99.99,wx200d/1.3,2013-08-03 08:09:00,
2013-08-03 04:14:00,74.5,48.0,29.38,SW,217,0.0,0.0,39,0.00,,,-99.99,wx200d/1.3,2013-08-03 08:14:00,
2013-08-03 04:19:00,74.5,48.0,29.38,SSW,199,0.0,0.0,38,0.00,,,-99.99,wx200d/1.3,2013-08-03 08:19:00,
2013-08-03 04:24:00,74.7,48.0,29.38,SSW,198,0.0,0.0,38,0.00,,,-99.99,wx200d/1.3,2013-08-03 08:24:00,
2013-08-03 04:29:00,74.7,48.0,29.38,South,189,0.0,0.0,38,0.00,,,-99.99,wx200d/1.3,2013-08-03 08:29:00,
2013-08-03 04:34:00,74.8,48.0,29.38,WSW,240,0.0,6.7,38,0.00,,,-99.99,wx200d/1.3,2013-08-03 08:34:00,
2013-08-03 04:39:00,74.5,48.0,29.38,SW,227,0.0,0.0,39,0.00,,,-99.99,wx200d/1.3,2013-08-03 08:39:00,
2013-08-03 04:44:00,74.5,48.0,29.38,SSW,197,0.0,0.0,39,0.00,,,-99.99,wx200d/1.3,2013-08-03 08:44:00,
2013-08-03 04:49:00,74.5,48.0,29.38,South,181,0.0,0.0,39,0.00,,,-99.99,wx200d/1.3,2013-08-03 08:49:00,
2013-08-03 04:54:00,74.5,48.0,29.38,SSW,206,3.1,5.4,39,0.00,,,-99.99,wx200d/1.3,2013-08-03 08:54:00,
2013-08-03 04:59:00,74.3,50.0,29.38,SW,221,0.0,0.0,40,0.00,,,-99.99,wx200d/1.3,2013-08-03 08:59:00,
2013-08-03 05:04:00,74.5,50.0,29.38,SW,221,5.8,10.5,40,0.00,,,-99.99,wx200d/1.3,2013-08-03 09:04:00,
2013-08-03 05:09:00,74.5,50.0,29.38,SW,217,6.3,8.3,40,0.00,,,-99.99,wx200d/1.3,2013-08-03 09:09:00,
2013-08-03 05:14:00,74.5,50.0,29.38,SW,228,3.1,7.4,41,0.00,,,-99.99,wx200d/1.3,2013-08-03 09:14:00,
2013-08-03 05:19:00,74.3,50.0,29.38,SSW,195,0.0,9.2,41,0.00,,,-99.99,wx200d/1.3,2013-08-03 09:19:00,
2013-08-03 05:24:00,74.3,50.0,29.38,WSW,239,4.9,6.3,41,0.00,,,-99.99,wx200d/1.3,2013-08-03 09:24:00,
2013-08-03 05:29:00,74.3,50.0,29.38,SW,222,0.0,5.4,41,0.00,,,-99.99,wx200d/1.3,2013-08-03 09:29:00,
2013-08-03 05:34:00,74.5,50.0,29.38,SW,227,0.0,0.0,41,0.00,,,-99.99,wx200d/1.3,2013-08-03 09:34:00,
2013-08-03 05:39:00,74.5,50.0,29.38,SW,229,0.0,0.0,41,0.00,,,-99.99,wx200d/1.3,2013-08-03 09:39:00,
2013-08-03 05:45:00,74.5,50.0,29.38,SW,228,0.0,0.0,41,0.00,,,-99.99,wx200d/1.3,2013-08-03 09:45:00,
2013-08-03 05:50:00,74.3,50.0,29.38,SW,221,0.0,0.0,42,0.00,,,-99.99,wx200d/1.3,2013-08-03 09:50:00,
2013-08-03 05:54:00,74.1,48.0,29.38,SW,217,0.0,0.0,42,0.00,,,-99.99,wx200d/1.3,2013-08-03 09:54:00,
2013-08-03 05:59:00,74.1,48.0,29.38,SW,229,0.0,0.0,42,0.00,,,-99.99,wx200d/1.3,2013-08-03 09:59:00,
2013-08-03 06:05:00,74.1,50.0,29.38,SW,228,0.0,6.7,43,0.00,,,-99.99,wx200d/1.3,2013-08-03 10:05:00,
2013-08-03 06:09:00,74.1,50.0,29.38,SW,228,0.0,4.5,43,0.00,,,-99.99,wx200d/1.3,2013-08-03 10:09:00,
2013-08-03 06:15:00,73.9,50.0,29.38,SW,224,0.0,0.0,43,0.00,,,-99.99,wx200d/1.3,2013-08-03 10:15:00,
2013-08-03 06:20:00,73.8,50.0,29.38,SW,231,0.0,0.0,44,0.00,,,-99.99,wx200d/1.3,2013-08-03 10:20:00,
2013-08-03 06:25:00,73.8,50.0,29.38,SW,217,0.0,0.0,44,0.00,,,-99.99,wx200d/1.3,2013-08-03 10:25:00,
2013-08-03 06:30:00,73.6,52.0,29.38,SSW,201,0.0,0.0,45,0.00,,,-99.99,wx200d/1.3,2013-08-03 10:30:00,
2013-08-03 06:35:00,73.6,52.0,29.38,SSW,201,0.0,3.6,45,0.00,,,-99.99,wx200d/1.3,2013-08-03 10:35:00,
2013-08-03 06:40:00,73.4,52.0,29.38,SW,226,0.0,0.0,46,0.00,,,-99.99,wx200d/1.3,2013-08-03 10:40:00,
2013-08-03 06:45:00,73.4,52.0,29.38,SW,220,0.0,0.0,46,0.00,,,-99.99,wx200d/1.3,2013-08-03 10:45:00,
2013-08-03 06:50:00,73.4,52.0,29.38,SW,220,0.0,0.0,47,0.00,,,-99.99,wx200d/1.3,2013-08-03 10:50:00,
2013-08-03 06:55:00,73.2,52.0,29.38,SW,229,0.0,0.0,48,0.00,,,-99.99,wx200d/1.3,2013-08-03 10:55:00,
2013-08-03 07:00:00,73.0,52.0,29.38,SW,229,0.0,0.0,48,0.00,,,-99.99,wx200d/1.3,2013-08-03 11:00:00,
2013-08-03 07:05:00,72.9,54.0,29.38,West,266,0.0,0.0,50,0.00,,,-99.99,wx200d/1.3,2013-08-03 11:05:00,
2013-08-03 07:10:00,72.7,54.0,29.38,West,266,0.0,0.0,50,0.00,,,-99.99,wx200d/1.3,2013-08-03 11:10:00,
2013-08-03 07:15:00,72.7,54.0,29.38,West,266,0.0,0.0,50,0.00,,,-99.99,wx200d/1.3,2013-08-03 11:15:00,
2013-08-03 07:20:00,72.9,54.0,29.38,West,266,0.0,0.0,51,0.00,,,-99.99,wx200d/1.3,2013-08-03 11:20:00,
2013-08-03 07:25:00,73.0,55.0,29.41,WNW,284,0.0,0.0,53,0.00,,,-99.99,wx200d/1.3,2013-08-03 11:25:00,
2013-08-03 07:30:00,73.2,57.0,29.41,WSW,253,0.0,0.0,55,0.00,,,-99.99,wx200d/1.3,2013-08-03 11:30:00,
2013-08-03 07:35:00,73.2,57.0,29.41,WSW,254,0.0,0.0,56,0.00,,,-99.99,wx200d/1.3,2013-08-03 11:35:00,
2013-08-03 07:40:00,73.4,57.0,29.41,WNW,282,0.0,0.0,54,0.00,,,-99.99,wx200d/1.3,2013-08-03 11:40:00,
2013-08-03 07:45:00,73.6,55.0,29.41,WNW,287,6.3,7.8,53,0.00,,,-99.99,wx200d/1.3,2013-08-03 11:45:00,
2013-08-03 07:50:00,73.9,54.0,29.41,WNW,289,4.0,7.8,50,0.00,,,-99.99,wx200d/1.3,2013-08-03 11:50:00,
2013-08-03 07:55:00,74.3,54.0,29.41,West,266,5.8,10.5,48,0.00,,,-99.99,wx200d/1.3,2013-08-03 11:55:00,
2013-08-03 08:00:00,74.5,54.0,29.41,West,269,4.5,9.2,47,0.00,,,-99.99,wx200d/1.3,2013-08-03 12:00:00,
2013-08-03 08:05:00,74.5,54.0,29.41,WNW,294,0.0,9.2,47,0.00,,,-99.99,wx200d/1.3,2013-08-03 12:05:00,
2013-08-03 08:10:00,74.5,54.0,29.41,West,280,0.0,0.0,47,0.00,,,-99.99,wx200d/1.3,2013-08-03 12:10:00,
2013-08-03 08:16:00,74.3,54.0,29.41,West,261,0.0,0.0,47,0.00,,,-99.99,wx200d/1.3,2013-08-03 12:16:00,
2013-08-03 08:21:00,74.3,54.0,29.41,WNW,295,0.0,7.8,47,0.00,,,-99.99,wx200d/1.3,2013-08-03 12:21:00,
2013-08-03 08:25:00,74.3,54.0,29.41,WNW,288,0.0,5.4,47,0.00,,,-99.99,wx200d/1.3,2013-08-03 12:25:00,
2013-08-03 08:30:00,74.3,54.0,29.41,NW,311,0.0,0.0,48,0.00,,,-99.99,wx200d/1.3,2013-08-03 12:30:00,
2013-08-03 08:36:00,74.3,55.0,29.41,West,268,0.0,4.0,50,0.00,,,-99.99,wx200d/1.3,2013-08-03 12:36:00,
2013-08-03 08:41:00,74.3,55.0,29.41,WNW,284,0.0,5.8,51,0.00,,,-99.99,wx200d/1.3,2013-08-03 12:41:00,
2013-08-03 08:46:00,74.5,55.0,29.41,WNW,297,0.0,3.6,51,0.00,,,-99.99,wx200d/1.3,2013-08-03 12:46:00,
2013-08-03 08:51:00,74.5,55.0,29.41,West,264,3.6,5.8,51,0.00,,,-99.99,wx200d/1.3,2013-08-03 12:51:00,
2013-08-03 08:56:00,74.5,57.0,29.41,WSW,253,0.0,7.4,52,0.00,,,-99.99,wx200d/1.3,2013-08-03 12:56:00,
2013-08-03 09:01:00,74.3,57.0,29.41,WSW,245,0.0,0.0,54,0.00,,,-99.99,wx200d/1.3,2013-08-03 13:01:00,
2013-08-03 09:07:00,74.1,55.0,29.41,WSW,245,0.0,7.4,54,0.00,,,-99.99,wx200d/1.3,2013-08-03 13:07:00,
2013-08-03 09:12:00,73.8,57.0,29.41,West,261,4.0,7.4,57,0.00,,,-99.99,wx200d/1.3,2013-08-03 13:12:00,
2013-08-03 09:17:00,73.6,57.0,29.41,WNW,293,0.0,7.4,58,0.00,,,-99.99,wx200d/1.3,2013-08-03 13:17:00,
2013-08-03 09:22:00,73.4,57.0,29.41,West,267,9.2,12.1,55,0.00,,,-99.99,wx200d/1.3,2013-08-03 13:22:00,
2013-08-03 09:27:00,73.6,57.0,29.38,SW,230,0.0,8.7,57,0.00,,,-99.99,wx200d/1.3,2013-08-03 13:27:00,
2013-08-03 09:32:00,73.4,57.0,29.38,SW,232,4.0,8.3,58,0.00,,,-99.99,wx200d/1.3,2013-08-03 13:32:00,
2013-08-03 09:37:00,73.4,59.0,29.38,SW,231,0.0,6.3,60,0.00,,,-99.99,wx200d/1.3,2013-08-03 13:37:00,
2013-08-03 09:42:00,73.2,59.0,29.38,SSW,197,0.0,0.0,61,0.00,,,-99.99,wx200d/1.3,2013-08-03 13:42:00,
2013-08-03 09:47:00,73.2,59.0,29.38,WSW,246,0.0,4.5,62,0.00,,,-99.99,wx200d/1.3,2013-08-03 13:47:00,
2013-08-03 09:52:00,73.4,61.0,29.38,SW,230,0.0,0.0,63,0.00,,,-99.99,wx200d/1.3,2013-08-03 13:52:00,
2013-08-03 09:57:00,73.6,61.0,29.41,WSW,241,0.0,0.0,65,0.00,,,-99.99,wx200d/1.3,2013-08-03 13:57:00,
2013-08-03 10:02:00,73.6,59.0,29.41,WSW,238,5.8,7.4,62,0.00,,,-99.99,wx200d/1.3,2013-08-03 14:02:00,
2013-08-03 10:07:00,73.8,61.0,29.41,SW,232,0.0,0.0,63,0.00,,,-99.99,wx200d/1.3,2013-08-03 14:07:00,
2013-08-03 10:13:00,73.8,61.0,29.41,SW,229,0.0,0.0,64,0.00,,,-99.99,wx200d/1.3,2013-08-03 14:13:00,
2013-08-03 10:18:00,73.9,61.0,29.41,SW,236,0.0,0.0,65,0.00,,,-99.99,wx200d/1.3,2013-08-03 14:18:00,
2013-08-03 10:23:00,73.9,61.0,29.41,WSW,240,0.0,0.0,65,0.00,,,-99.99,wx200d/1.3,2013-08-03 14:23:00,
2013-08-03 10:28:00,73.9,61.0,29.41,WSW,237,0.0,0.0,65,0.00,,,-99.99,wx200d/1.3,2013-08-03 14:28:00,
2013-08-03 10:33:00,74.1,61.0,29.41,SW,229,0.0,0.0,66,0.00,,,-99.99,wx200d/1.3,2013-08-03 14:33:00,
2013-08-03 10:38:00,74.3,63.0,29.41,SW,228,0.0,5.4,66,0.00,,,-99.99,wx200d/1.3,2013-08-03 14:38:00,
2013-08-03 10:43:00,74.3,63.0,29.41,WSW,248,0.0,6.9,65,0.00,,,-99.99,wx200d/1.3,2013-08-03 14:43:00,
2013-08-03 10:48:00,74.5,64.0,29.41,SW,235,0.0,0.0,67,0.00,,,-99.99,wx200d/1.3,2013-08-03 14:48:00,
2013-08-03 10:53:00,74.7,64.0,29.41,WSW,247,0.0,0.0,68,0.00,,,-99.99,wx200d/1.3,2013-08-03 14:53:00,
2013-08-03 10:58:00,74.5,63.0,29.41,SW,234,0.0,0.0,64,0.00,,,-99.99,wx200d/1.3,2013-08-03 14:58:00,
2013-08-03 11:03:00,75.0,63.0,29.41,West,259,0.0,9.6,66,0.00,,,-99.99,wx200d/1.3,2013-08-03 15:03:00,
2013-08-03 11:08:00,75.0,63.0,29.41,SW,232,0.0,8.3,65,0.00,,,-99.99,wx200d/1.3,2013-08-03 15:08:00,
2013-08-03 11:13:00,75.0,63.0,29.41,West,264,6.3,7.8,63,0.00,,,-99.99,wx200d/1.3,2013-08-03 15:13:00,
2013-08-03 11:18:00,75.0,61.0,29.41,SW,234,7.4,9.2,60,0.00,,,-99.99,wx200d/1.3,2013-08-03 15:18:00,
2013-08-03 11:23:00,75.4,63.0,29.41,SW,232,0.0,0.0,63,0.00,,,-99.99,wx200d/1.3,2013-08-03 15:23:00,
2013-08-03 11:28:00,75.4,63.0,29.41,WSW,246,0.0,7.8,63,0.00,,,-99.99,wx200d/1.3,2013-08-03 15:28:00,
2013-08-03 11:33:00,75.4,61.0,29.41,WSW,250,6.9,9.2,60,0.00,,,-99.99,wx200d/1.3,2013-08-03 15:33:00,
2013-08-03 11:38:00,75.4,61.0,29.41,WSW,254,3.6,7.8,60,0.00,,,-99.99,wx200d/1.3,2013-08-03 15:38:00,
2013-08-03 11:43:00,75.4,61.0,29.41,WSW,247,0.0,6.3,59,0.00,,,-99.99,wx200d/1.3,2013-08-03 15:43:00,
2013-08-03 11:48:00,75.4,59.0,29.41,SW,235,0.0,8.7,56,0.00,,,-99.99,wx200d/1.3,2013-08-03 15:48:00,
2013-08-03 11:53:00,75.2,57.0,29.41,WSW,246,6.9,7.8,55,0.00,,,-99.99,wx200d/1.3,2013-08-03 15:53:00,
2013-08-03 11:58:00,75.2,57.0,29.41,WSW,248,6.3,8.3,55,0.00,,,-99.99,wx200d/1.3,2013-08-03 15:58:00,
2013-08-03 12:03:00,75.2,59.0,29.41,SW,235,0.0,7.8,57,0.00,,,-99.99,wx200d/1.3,2013-08-03 16:03:00,
2013-08-03 12:08:00,75.4,61.0,29.41,WSW,254,4.9,6.7,60,0.00,,,-99.99,wx200d/1.3,2013-08-03 16:08:00,
2013-08-03 12:13:00,75.4,61.0,29.41,SW,221,0.0,7.4,62,0.00,,,-99.99,wx200d/1.3,2013-08-03 16:13:00,
2013-08-03 12:18:00,75.2,63.0,29.41,SW,226,4.9,9.2,63,0.00,,,-99.99,wx200d/1.3,2013-08-03 16:18:00,
2013-08-03 12:23:00,75.4,63.0,29.41,SW,236,6.3,8.3,63,0.00,,,-99.99,wx200d/1.3,2013-08-03 16:23:00,
2013-08-03 12:28:00,75.4,61.0,29.41,SW,230,5.4,9.2,60,0.00,,,-99.99,wx200d/1.3,2013-08-03 16:28:00,
2013-08-03 12:33:00,75.2,61.0,29.41,WSW,248,6.9,10.5,61,0.00,,,-99.99,wx200d/1.3,2013-08-03 16:33:00,
2013-08-03 12:38:00,75.0,61.0,29.41,WSW,243,8.7,11.2,59,0.00,,,-99.99,wx200d/1.3,2013-08-03 16:38:00,
2013-08-03 12:43:00,74.8,61.0,29.41,WSW,249,7.4,11.0,61,0.00,,,-99.99,wx200d/1.3,2013-08-03 16:43:00,
2013-08-03 12:48:00,74.7,61.0,29.41,SW,236,4.9,10.5,60,0.00,,,-99.99,wx200d/1.3,2013-08-03 16:48:00,
2013-08-03 12:53:00,74.7,63.0,29.41,South,185,5.4,7.4,63,0.00,,,-99.99,wx200d/1.3,2013-08-03 16:53:00,
2013-08-03 12:58:00,74.3,61.0,29.41,SW,228,5.8,7.8,62,0.00,,,-99.99,wx200d/1.3,2013-08-03 16:58:00,
2013-08-03 13:03:00,74.1,61.0,29.41,SW,231,5.8,8.3,63,0.00,,,-99.99,wx200d/1.3,2013-08-03 17:03:00,
2013-08-03 13:08:00,73.9,59.0,29.41,SW,236,6.7,8.7,62,0.00,,,-99.99,wx200d/1.3,2013-08-03 17:08:00,
2013-08-03 13:13:00,73.8,59.0,29.41,SW,232,6.9,11.2,60,0.00,,,-99.99,wx200d/1.3,2013-08-03 17:13:00,
2013-08-03 13:18:00,73.8,59.0,29.41,SW,232,5.8,8.3,61,0.00,,,-99.99,wx200d/1.3,2013-08-03 17:18:00,
2013-08-03 13:23:00,73.8,61.0,29.41,WSW,241,0.0,6.9,63,0.00,,,-99.99,wx200d/1.3,2013-08-03 17:23:00,
2013-08-03 13:28:00,73.9,61.0,29.41,WSW,241,0.0,0.0,64,0.00,,,-99.99,wx200d/1.3,2013-08-03 17:28:00,
2013-08-03 13:33:00,74.3,63.0,29.41,SSW,211,0.0,0.0,64,0.00,,,-99.99,wx200d/1.3,2013-08-03 17:33:00,
2013-08-03 13:39:00,74.5,61.0,29.41,SW,225,0.0,0.0,62,0.00,,,-99.99,wx200d/1.3,2013-08-03 17:39:00,
2013-08-03 13:44:00,74.5,61.0,29.41,SSW,201,0.0,0.0,60,0.00,,,-99.99,wx200d/1.3,2013-08-03 17:44:00,
2013-08-03 13:49:00,74.8,61.0,29.41,SW,228,0.0,0.0,60,0.00,,,-99.99,wx200d/1.3,2013-08-03 17:49:00,
2013-08-03 13:54:00,75.0,61.0,29.41,SW,234,0.0,0.0,60,0.00,,,-99.99,wx200d/1.3,2013-08-03 17:54:00,
2013-08-03 13:59:00,75.0,61.0,29.41,WSW,241,0.0,0.0,58,0.00,,,-99.99,wx200d/1.3,2013-08-03 17:59:00,
2013-08-03 14:04:00,75.4,59.0,29.41,SW,230,0.0,0.0,59,0.00,,,-99.99,wx200d/1.3,2013-08-03 18:04:00,
2013-08-03 14:09:00,75.6,59.0,29.41,SW,234,0.0,6.7,58,0.00,,,-99.99,wx200d/1.3,2013-08-03 18:09:00,
2013-08-03 14:14:00,75.9,59.0,29.41,WSW,237,6.3,7.4,56,0.00,,,-99.99,wx200d/1.3,2013-08-03 18:14:00,
2013-08-03 14:19:00,75.9,57.0,29.41,WSW,239,6.3,7.8,54,0.00,,,-99.99,wx200d/1.3,2013-08-03 18:19:00,
2013-08-03 14:24:00,76.1,59.0,29.41,SW,220,0.0,6.3,55,0.00,,,-99.99,wx200d/1.3,2013-08-03 18:24:00,
2013-08-03 14:29:00,76.1,59.0,29.41,SW,234,4.9,6.9,54,0.00,,,-99.99,wx200d/1.3,2013-08-03 18:29:00,
2013-08-03 14:34:00,75.9,57.0,29.41,SW,229,3.1,6.9,54,0.00,,,-99.99,wx200d/1.3,2013-08-03 18:34:00,
2013-08-03 14:39:00,76.1,59.0,29.41,SW,230,7.4,9.2,53,0.00,,,-99.99,wx200d/1.3,2013-08-03 18:39:00,
2013-08-03 14:44:00,76.3,59.0,29.41,WSW,242,0.0,6.7,54,0.00,,,-99.99,wx200d/1.3,2013-08-03 18:44:00,
2013-08-03 14:49:00,76.5,59.0,29.41,SSW,212,5.8,8.3,54,0.00,,,-99.99,wx200d/1.3,2013-08-03 18:49:00,
2013-08-03 14:54:00,76.8,59.0,29.41,SW,230,6.3,8.3,53,0.00,,,-99.99,wx200d/1.3,2013-08-03 18:54:00,
2013-08-03 14:59:00,77.0,57.0,29.38,SW,234,7.4,9.6,51,0.00,,,-99.99,wx200d/1.3,2013-08-03 18:59:00,
2013-08-03 15:04:00,77.2,59.0,29.38,SW,229,5.4,8.7,52,0.00,,,-99.99,wx200d/1.3,2013-08-03 19:04:00,
2013-08-03 15:09:00,77.5,57.0,29.38,West,264,6.7,9.6,50,0.00,,,-99.99,wx200d/1.3,2013-08-03 19:09:00,
2013-08-03 15:14:00,77.9,57.0,29.38,SW,235,5.8,8.7,48,0.00,,,-99.99,wx200d/1.3,2013-08-03 19:14:00,
2013-08-03 15:19:00,78.4,57.0,29.38,WSW,238,7.4,8.3,47,0.00,,,-99.99,wx200d/1.3,2013-08-03 19:19:00,
2013-08-03 15:24:00,78.4,55.0,29.38,WSW,255,7.8,11.0,43,0.00,,,-99.99,wx200d/1.3,2013-08-03 19:24:00,
2013-08-03 15:29:00,78.8,55.0,29.38,SW,235,9.2,10.5,44,0.00,,,-99.99,wx200d/1.3,2013-08-03 19:29:00,
2013-08-03 15:34:00,78.8,54.0,29.38,SW,232,9.2,12.5,42,0.00,,,-99.99,wx200d/1.3,2013-08-03 19:34:00,
2013-08-03 15:39:00,78.8,52.0,29.38,SW,234,10.1,11.2,40,0.00,,,-99.99,wx200d/1.3,2013-08-03 19:39:00,
2013-08-03 15:44:00,78.6,52.0,29.38,SW,225,8.7,11.6,40,0.00,,,-99.99,wx200d/1.3,2013-08-03 19:44:00,
2013-08-03 15:49:00,78.6,54.0,29.38,SW,236,7.8,10.5,41,0.00,,,-99.99,wx200d/1.3,2013-08-03 19:49:00,
2013-08-03 15:54:00,78.4,55.0,29.38,SW,233,4.0,11.0,43,0.00,,,-99.99,wx200d/1.3,2013-08-03 19:54:00,
2013-08-03 15:59:00,78.4,54.0,29.38,SW,229,7.8,12.1,42,0.00,,,-99.99,wx200d/1.3,2013-08-03 19:59:00,
2013-08-03 16:04:00,78.4,54.0,29.38,West,267,8.7,11.0,42,0.00,,,-99.99,wx200d/1.3,2013-08-03 20:04:00,
2013-08-03 16:09:00,78.3,54.0,29.38,SW,232,8.3,11.6,42,0.00,,,-99.99,wx200d/1.3,2013-08-03 20:09:00,
2013-08-03 16:15:00,78.1,55.0,29.38,SW,229,8.7,12.1,42,0.00,,,-99.99,wx200d/1.3,2013-08-03 20:15:00,
2013-08-03 16:20:00,77.9,54.0,29.38,WSW,244,8.3,12.5,42,0.00,,,-99.99,wx200d/1.3,2013-08-03 20:20:00,
2013-08-03 16:25:00,77.7,54.0,29.38,WSW,237,9.6,12.5,43,0.00,,,-99.99,wx200d/1.3,2013-08-03 20:25:00,
2013-08-03 16:29:00,77.7,54.0,29.38,WSW,243,7.8,11.2,45,0.00,,,-99.99,wx200d/1.3,2013-08-03 20:29:00,
2013-08-03 16:35:00,77.9,57.0,29.38,SW,233,6.3,8.7,47,0.00,,,-99.99,wx200d/1.3,2013-08-03 20:35:00,
2013-08-03 16:40:00,77.9,57.0,29.38,SW,232,6.9,9.2,46,0.00,,,-99.99,wx200d/1.3,2013-08-03 20:40:00,
2013-08-03 16:45:00,77.7,54.0,29.35,WSW,243,7.4,12.1,44,0.00,,,-99.99,wx200d/1.3,2013-08-03 20:45:00,
2013-08-03 16:50:00,77.9,57.0,29.35,SW,227,6.7,11.6,47,0.00,,,-99.99,wx200d/1.3,2013-08-03 20:50:00,
2013-08-03 16:55:00,78.4,57.0,29.35,SW,236,5.8,7.4,48,0.00,,,-99.99,wx200d/1.3,2013-08-03 20:55:00,
2013-08-03 17:00:00,79.2,55.0,29.35,WSW,246,4.5,10.1,44,0.00,,,-99.99,wx200d/1.3,2013-08-03 21:00:00,
2013-08-03 17:05:00,79.7,55.0,29.35,WSW,237,10.1,11.2,42,0.00,,,-99.99,wx200d/1.3,2013-08-03 21:05:00,
2013-08-03 17:10:00,79.5,55.0,29.35,WSW,239,6.7,13.0,44,0.00,,,-99.99,wx200d/1.3,2013-08-03 21:10:00,
2013-08-03 17:15:00,79.5,55.0,29.35,West,271,7.4,10.5,45,0.00,,,-99.99,wx200d/1.3,2013-08-03 21:15:00,
2013-08-03 17:20:00,79.5,57.0,29.35,SW,227,6.7,10.5,46,0.00,,,-99.99,wx200d/1.3,2013-08-03 21:20:00,
2013-08-03 17:25:00,79.2,55.0,29.35,SW,220,9.6,11.2,44,0.00,,,-99.99,wx200d/1.3,2013-08-03 21:25:00,
2013-08-03 17:30:00,79.2,55.0,29.35,SW,230,9.6,11.6,45,0.00,,,-99.99,wx200d/1.3,2013-08-03 21:30:00,
2013-08-03 17:35:00,79.0,55.0,29.35,SW,225,8.3,11.6,45,0.00,,,-99.99,wx200d/1.3,2013-08-03 21:35:00,
2013-08-03 17:40:00,78.4,55.0,29.35,SW,229,8.7,11.2,45,0.00,,,-99.99,wx200d/1.3,2013-08-03 21:40:00,
2013-08-03 17:45:00,77.7,55.0,29.35,WSW,238,9.6,10.5,47,0.00,,,-99.99,wx200d/1.3,2013-08-03 21:45:00,
2013-08-03 17:50:00,77.5,57.0,29.35,SW,214,6.9,10.5,51,0.00,,,-99.99,wx200d/1.3,2013-08-03 21:50:00,
2013-08-03 17:55:00,77.5,59.0,29.35,SSW,208,0.0,9.2,52,0.00,,,-99.99,wx200d/1.3,2013-08-03 21:55:00,
2013-08-03 18:00:00,77.5,59.0,29.35,SW,222,4.0,8.7,52,0.00,,,-99.99,wx200d/1.3,2013-08-03 22:00:00,
2013-08-03 18:05:00,77.5,57.0,29.35,SW,223,7.4,9.6,51,0.00,,,-99.99,wx200d/1.3,2013-08-03 22:05:00,
2013-08-03 18:10:00,77.9,61.0,29.35,SW,232,6.7,10.1,53,0.00,,,-99.99,wx200d/1.3,2013-08-03 22:10:00,
2013-08-03 18:15:00,78.3,59.0,29.35,WSW,244,6.7,12.1,50,0.00,,,-99.99,wx200d/1.3,2013-08-03 22:15:00,
2013-08-03 18:20:00,78.4,57.0,29.35,WSW,238,7.8,11.0,49,0.00,,,-99.99,wx200d/1.3,2013-08-03 22:20:00,
2013-08-03 18:25:00,78.6,59.0,29.35,SW,231,5.4,8.7,52,0.00,,,-99.99,wx200d/1.3,2013-08-03 22:25:00,
2013-08-03 18:30:00,78.6,57.0,29.35,SW,233,7.4,10.5,46,0.00,,,-99.99,wx200d/1.3,2013-08-03 22:30:00,
2013-08-03 18:35:00,78.4,57.0,29.35,SW,232,6.3,10.1,47,0.00,,,-99.99,wx200d/1.3,2013-08-03 22:35:00,
2013-08-03 18:40:00,78.3,57.0,29.35,SSW,207,6.3,9.2,47,0.00,,,-99.99,wx200d/1.3,2013-08-03 22:40:00,
2013-08-03 18:45:00,78.4,57.0,29.35,SW,229,3.6,8.3,49,0.00,,,-99.99,wx200d/1.3,2013-08-03 22:45:00,
2013-08-03 18:50:00,78.3,57.0,29.35,SW,216,6.9,9.6,46,0.00,,,-99.99,wx200d/1.3,2013-08-03 22:50:00,
2013-08-03 18:55:00,78.1,57.0,29.38,SW,229,6.3,8.7,47,0.00,,,-99.99,wx200d/1.3,2013-08-03 22:55:00,
2013-08-03 19:00:00,77.7,55.0,29.38,SW,234,7.8,9.2,47,0.00,,,-99.99,wx200d/1.3,2013-08-03 23:00:00,
2013-08-03 19:05:00,77.7,57.0,29.38,WSW,252,2.7,8.3,49,0.00,,,-99.99,wx200d/1.3,2013-08-03 23:05:00,
2013-08-03 19:10:00,77.7,55.0,29.38,SW,229,0.0,6.9,48,0.00,,,-99.99,wx200d/1.3,2013-08-03 23:10:00,
2013-08-03 19:15:00,77.5,57.0,29.38,WSW,244,0.0,0.0,49,0.00,,,-99.99,wx200d/1.3,2013-08-03 23:15:00,
2013-08-03 19:20:00,77.5,57.0,29.38,SW,225,0.0,0.0,50,0.00,,,-99.99,wx200d/1.3,2013-08-03 23:20:00,
2013-08-03 19:25:00,77.2,57.0,29.35,SW,227,0.0,0.0,51,0.00,,,-99.99,wx200d/1.3,2013-08-03 23:25:00,
2013-08-03 19:30:00,76.8,59.0,29.35,SW,230,0.0,0.0,53,0.00,,,-99.99,wx200d/1.3,2013-08-03 23:30:00,
2013-08-03 19:35:00,76.6,59.0,29.35,SW,223,0.0,0.0,54,0.00,,,-99.99,wx200d/1.3,2013-08-03 23:35:00,
2013-08-03 19:40:00,76.5,59.0,29.38,South,180,3.6,5.8,54,0.00,,,-99.99,wx200d/1.3,2013-08-03 23:40:00,
2013-08-03 19:45:00,76.3,59.0,29.38,South,175,4.0,8.3,54,0.00,,,-99.99,wx200d/1.3,2013-08-03 23:45:00,
2013-08-03 19:50:00,75.9,57.0,29.38,SSW,195,0.0,7.4,55,0.00,,,-99.99,wx200d/1.3,2013-08-03 23:50:00,
2013-08-03 19:55:00,75.7,59.0,29.35,South,178,0.0,4.5,57,0.00,,,-99.99,wx200d/1.3,2013-08-03 23:55:00,
2013-08-03 20:00:00,75.6,59.0,29.35,South,191,0.0,5.8,58,0.00,,,-99.99,wx200d/1.3,2013-08-04 00:00:00,
2013-08-03 20:05:00,75.2,61.0,29.35,South,187,0.0,5.8,59,0.00,,,-99.99,wx200d/1.3,2013-08-04 00:05:00,
2013-08-03 20:10:00,74.8,61.0,29.35,South,190,0.0,7.4,60,0.00,,,-99.99,wx200d/1.3,2013-08-04 00:10:00,
2013-08-03 20:16:00,74.7,61.0,29.35,SSW,197,0.0,0.0,61,0.00,,,-99.99,wx200d/1.3,2013-08-04 00:16:00,
2013-08-03 20:21:00,74.3,61.0,29.35,SSW,207,0.0,0.0,61,0.00,,,-99.99,wx200d/1.3,2013-08-04 00:21:00,
2013-08-03 20:25:00,74.1,59.0,29.38,South,173,0.0,0.0,62,0.00,,,-99.99,wx200d/1.3,2013-08-04 00:25:00,
2013-08-03 20:30:00,73.9,61.0,29.38,South,181,0.0,0.0,63,0.00,,,-99.99,wx200d/1.3,2013-08-04 00:30:00,
2013-08-03 20:36:00,73.6,61.0,29.38,SSE,160,0.0,0.0,63,0.00,,,-99.99,wx200d/1.3,2013-08-04 00:36:00,
2013-08-03 20:41:00,73.4,61.0,29.38,SSE,160,0.0,0.0,63,0.00,,,-99.99,wx200d/1.3,2013-08-04 00:41:00,
2013-08-03 20:46:00,73.0,61.0,29.38,SSE,160,0.0,0.0,64,0.00,,,-99.99,wx200d/1.3,2013-08-04 00:46:00,
2013-08-03 20:51:00,72.9,61.0,29.38,SSE,160,0.0,0.0,64,0.00,,,-99.99,wx200d/1.3,2013-08-04 00:51:00,
2013-08-03 20:56:00,72.5,61.0,29.38,SSE,160,0.0,0.0,64,0.00,,,-99.99,wx200d/1.3,2013-08-04 00:56:00,
2013-08-03 21:01:00,72.3,59.0,29.38,SSE,160,0.0,0.0,64,0.00,,,-99.99,wx200d/1.3,2013-08-04 01:01:00,
2013-08-03 21:06:00,72.1,59.0,29.38,SSE,160,0.0,0.0,65,0.00,,,-99.99,wx200d/1.3,2013-08-04 01:06:00,
2013-08-03 21:11:00,72.0,59.0,29.38,SSE,162,0.0,0.0,66,0.00,,,-99.99,wx200d/1.3,2013-08-04 01:11:00,
2013-08-03 21:16:00,71.6,61.0,29.38,SSE,162,0.0,0.0,67,0.00,,,-99.99,wx200d/1.3,2013-08-04 01:16:00,
2013-08-03 21:21:00,71.4,61.0,29.38,SSE,163,0.0,0.0,67,0.00,,,-99.99,wx200d/1.3,2013-08-04 01:21:00,
2013-08-03 21:26:00,71.2,61.0,29.38,SSE,162,0.0,0.0,68,0.00,,,-99.99,wx200d/1.3,2013-08-04 01:26:00,
2013-08-03 21:32:00,71.1,61.0,29.38,SSE,162,0.0,0.0,69,0.00,,,-99.99,wx200d/1.3,2013-08-04 01:32:00,
2013-08-03 21:37:00,70.9,63.0,29.38,ESE,116,0.0,0.0,72,0.00,,,-99.99,wx200d/1.3,2013-08-04 01:37:00,
2013-08-03 21:42:00,71.1,63.0,29.38,ESE,117,0.0,0.0,75,0.00,,,-99.99,wx200d/1.3,2013-08-04 01:42:00,
2013-08-03 21:47:00,71.1,63.0,29.38,ESE,117,0.0,0.0,75,0.00,,,-99.99,wx200d/1.3,2013-08-04 01:47:00,
2013-08-03 21:52:00,71.1,64.0,29.38,South,188,0.0,0.0,76,0.00,,,-99.99,wx200d/1.3,2013-08-04 01:52:00,
2013-08-03 21:57:00,71.1,64.0,29.38,South,189,0.0,0.0,77,0.00,,,-99.99,wx200d/1.3,2013-08-04 01:57:00,
2013-08-03 22:02:00,71.1,64.0,29.38,South,189,0.0,0.0,77,0.00,,,-99.99,wx200d/1.3,2013-08-04 02:02:00,
2013-08-03 22:07:00,70.9,64.0,29.38,South,189,0.0,0.0,77,0.00,,,-99.99,wx200d/1.3,2013-08-04 02:07:00,
2013-08-03 22:12:00,70.7,64.0,29.38,South,189,0.0,0.0,77,0.00,,,-99.99,wx200d/1.3,2013-08-04 02:12:00,
2013-08-03 22:17:00,70.5,63.0,29.38,South,189,0.0,0.0,78,0.00,,,-99.99,wx200d/1.3,2013-08-04 02:17:00,
2013-08-03 22:22:00,70.5,63.0,29.38,South,189,0.0,0.0,78,0.00,,,-99.99,wx200d/1.3,2013-08-04 02:22:00,
2013-08-03 22:27:00,70.3,63.0,29.38,South,189,0.0,0.0,79,0.00,,,-99.99,wx200d/1.3,2013-08-04 02:27:00,
2013-08-03 22:32:00,70.2,63.0,29.38,South,189,0.0,0.0,79,0.00,,,-99.99,wx200d/1.3,2013-08-04 02:32:00,
2013-08-03 22:37:00,70.2,63.0,29.38,South,189,0.0,0.0,80,0.00,,,-99.99,wx200d/1.3,2013-08-04 02:37:00,
2013-08-03 22:42:00,70.2,63.0,29.38,South,183,0.0,0.0,80,0.00,,,-99.99,wx200d/1.3,2013-08-04 02:42:00,
2013-08-03 22:47:00,70.2,63.0,29.38,South,183,0.0,0.0,80,0.00,,,-99.99,wx200d/1.3,2013-08-04 02:47:00,
2013-08-03 22:52:00,70.3,64.0,29.38,South,189,0.0,0.0,81,0.00,,,-99.99,wx200d/1.3,2013-08-04 02:52:00,
2013-08-03 22:57:00,70.5,64.0,29.38,South,188,0.0,0.0,81,0.00,,,-99.99,wx200d/1.3,2013-08-04 02:57:00,
2013-08-03 23:02:00,70.5,64.0,29.38,South,189,0.0,0.0,81,0.00,,,-99.99,wx200d/1.3,2013-08-04 03:02:00,
2013-08-03 23:07:00,70.5,64.0,29.38,South,188,0.0,0.0,81,0.00,,,-99.99,wx200d/1.3,2013-08-04 03:07:00,
2013-08-03 23:12:00,70.5,64.0,29.38,South,189,0.0,0.0,81,0.00,,,-99.99,wx200d/1.3,2013-08-04 03:12:00,
2013-08-03 23:17:00,70.5,64.0,29.38,South,188,0.0,0.0,81,0.00,,,-99.99,wx200d/1.3,2013-08-04 03:17:00,
2013-08-03 23:22:00,70.7,66.0,29.38,South,176,0.0,0.0,82,0.00,,,-99.99,wx200d/1.3,2013-08-04 03:22:00,
2013-08-03 23:27:00,70.7,66.0,29.38,South,176,0.0,0.0,82,0.00,,,-99.99,wx200d/1.3,2013-08-04 03:27:00,
2013-08-03 23:32:00,70.7,66.0,29.38,SW,225,0.0,0.0,82,0.00,,,-99.99,wx200d/1.3,2013-08-04 03:32:00,
2013-08-03 23:37:00,70.5,64.0,29.38,SW,225,0.0,0.0,82,0.00,,,-99.99,wx200d/1.3,2013-08-04 03:37:00,
2013-08-03 23:42:00,70.5,64.0,29.38,SW,225,0.0,0.0,82,0.00,,,-99.99,wx200d/1.3,2013-08-04 03:42:00,
2013-08-03 23:48:00,70.5,64.0,29.38,SW,225,0.0,0.0,81,0.00,,,-99.99,wx200d/1.3,2013-08-04 03:48:00,
2013-08-03 23:52:00,70.3,64.0,29.38,SW,225,0.0,0.0,81,0.00,,,-99.99,wx200d/1.3,2013-08-04 03:52:00,
2013-08-03 23:58:00,70.2,64.0,29.38,South,181,0.0,0.0,81,0.00,,,-99.99,wx200d/1.3,2013-08-04 03:58:00,